createdAt,value
2023-09-03T00:03:26.613Z,18.05
2023-09-03T00:09:14.081Z,18.08
2023-09-03T00:15:00.896Z,17.89
2023-09-03T00:20:57.320Z,17.94
2023-09-03T00:26:47.071Z,17.94
2023-09-03T00:32:33.965Z,17.93
2023-09-03T00:38:21.302Z,17.86
2023-09-03T00:44:08.579Z,17.55
2023-09-03T00:49:55.764Z,17.67
2023-09-03T00:55:44.437Z,17.70
2023-09-03T01:01:31.727Z,17.56
2023-09-03T01:07:23.949Z,17.65
2023-09-03T01:13:25.302Z,17.63
2023-09-03T01:19:56.579Z,17.71
2023-09-03T01:25:49.020Z,17.64
2023-09-03T01:31:37.519Z,17.69
2023-09-03T01:37:24.814Z,17.40
2023-09-03T01:43:11.666Z,17.51
2023-09-03T01:49:26.272Z,17.58
2023-09-03T01:55:16.750Z,17.50
2023-09-03T02:01:04.393Z,17.58
2023-09-03T02:06:51.417Z,17.43
2023-09-03T02:12:38.521Z,17.36
2023-09-03T02:18:25.422Z,17.24
2023-09-03T02:24:12.571Z,17.09
2023-09-03T02:30:06.249Z,16.84
2023-09-03T02:35:53.530Z,16.93
2023-09-03T02:41:40.582Z,17.09
2023-09-03T02:47:28.348Z,16.87
2023-09-03T02:53:15.039Z,16.56
2023-09-03T02:59:01.732Z,16.59
2023-09-03T03:04:48.591Z,16.60
2023-09-03T03:10:35.661Z,16.63
2023-09-03T03:16:22.676Z,16.81
2023-09-03T03:22:13.493Z,16.84
2023-09-03T03:28:00.489Z,16.78
2023-09-03T03:33:48.826Z,16.87
2023-09-03T03:39:38.216Z,16.81
2023-09-03T03:45:26.656Z,16.67
2023-09-03T03:51:14.317Z,16.65
2023-09-03T03:57:01.525Z,16.45
2023-09-03T04:02:48.390Z,16.42
2023-09-03T04:08:37.675Z,16.56
2023-09-03T04:14:24.435Z,16.46
2023-09-03T04:20:12.365Z,16.46
2023-09-03T04:25:59.751Z,16.27
2023-09-03T04:31:49.407Z,16.36
2023-09-03T04:37:36.199Z,16.15
2023-09-03T04:43:24.287Z,16.15
2023-09-03T04:49:13.319Z,15.85
2023-09-03T04:55:00.108Z,15.87
2023-09-03T05:00:47.202Z,15.85
2023-09-03T05:06:34.336Z,15.89
2023-09-03T05:12:21.356Z,15.89
2023-09-03T05:18:08.114Z,15.80
2023-09-03T05:23:55.681Z,15.91
2023-09-03T05:29:42.956Z,15.97
2023-09-03T05:35:30.763Z,15.89
2023-09-03T05:41:17.710Z,16.01
2023-09-03T05:47:05.069Z,16.09
2023-09-03T05:52:52.516Z,16.17
2023-09-03T05:58:39.874Z,16.15
2023-09-03T06:04:28.749Z,16.32
2023-09-03T06:10:16.023Z,16.42
2023-09-03T06:16:05.651Z,16.44
2023-09-03T06:21:52.355Z,16.63
2023-09-03T06:27:39.256Z,16.81
2023-09-03T06:33:26.216Z,16.81
2023-09-03T06:39:14.683Z,16.96
2023-09-03T06:45:01.552Z,17.14
2023-09-03T06:50:52.107Z,17.27
2023-09-03T06:56:48.840Z,17.74
2023-09-03T07:02:38.931Z,18.31
2023-09-03T07:08:32.961Z,18.93
2023-09-03T07:14:22.084Z,19.47
2023-09-03T07:20:10.356Z,19.76
2023-09-03T07:26:08.175Z,20.12
2023-09-03T07:31:58.363Z,20.06
2023-09-03T07:37:45.703Z,19.93
2023-09-03T07:43:32.467Z,20.20
2023-09-03T07:49:20.248Z,21.01
2023-09-03T07:55:08.142Z,21.38
2023-09-03T08:00:55.938Z,21.59
2023-09-03T08:06:43.143Z,21.95
2023-09-03T08:12:30.629Z,22.35
2023-09-03T08:18:32.902Z,22.46
2023-09-03T08:24:22.172Z,23.04
2023-09-03T08:30:11.365Z,23.16
2023-09-03T08:35:58.932Z,23.46
2023-09-03T08:41:47.068Z,23.31
2023-09-03T08:47:38.969Z,22.83
2023-09-03T08:53:26.210Z,22.54
2023-09-03T08:59:12.919Z,23.22
2023-09-03T09:05:04.370Z,23.93
2023-09-03T09:10:53.020Z,23.31
2023-09-03T09:16:39.655Z,23.52
2023-09-03T09:22:27.331Z,23.65
2023-09-03T09:28:18.566Z,24.43
2023-09-03T09:34:15.535Z,24.35
2023-09-03T09:40:06.753Z,24.20
2023-09-03T09:45:54.536Z,24.39
2023-09-03T09:51:42.234Z,24.29
2023-09-03T09:57:41.385Z,24.21
2023-09-03T10:03:57.168Z,25.34
2023-09-03T10:10:15.127Z,25.92
2023-09-03T10:16:20.264Z,26.13
2023-09-03T10:22:14.754Z,25.79
2023-09-03T10:28:08.518Z,26.23
2023-09-03T10:34:08.076Z,26.71
2023-09-03T10:40:37.506Z,27.11
2023-09-03T10:46:30.544Z,27.16
2023-09-03T10:52:36.270Z,26.80
2023-09-03T10:58:34.188Z,26.73
2023-09-03T11:04:38.985Z,26.67
2023-09-03T11:10:26.660Z,27.19
2023-09-03T11:16:16.005Z,27.40
2023-09-03T11:22:08.172Z,27.43
2023-09-03T11:27:59.816Z,27.37
2023-09-03T11:33:52.214Z,27.42
2023-09-03T11:39:39.079Z,27.60
2023-09-03T11:45:34.523Z,28.07
2023-09-03T11:51:29.972Z,28.60
2023-09-03T11:57:17.855Z,28.46
2023-09-03T12:03:06.122Z,27.82
2023-09-03T12:08:53.028Z,27.94
2023-09-03T12:14:42.307Z,27.95
2023-09-03T12:20:40.965Z,28.12
2023-09-03T12:26:27.816Z,27.75
2023-09-03T12:32:18.432Z,28.03
2023-09-03T12:38:07.965Z,28.36
2023-09-03T12:44:08.779Z,27.53
2023-09-03T12:49:58.772Z,27.52
2023-09-03T12:55:48.096Z,27.81
2023-09-03T13:01:42.202Z,27.81
2023-09-03T13:07:31.537Z,27.67
2023-09-03T13:13:23.512Z,27.50
2023-09-03T13:19:15.158Z,27.53
2023-09-03T13:25:02.287Z,27.26
2023-09-03T13:30:57.644Z,27.39
2023-09-03T13:36:59.250Z,27.40
2023-09-03T13:42:49.310Z,27.31
2023-09-03T13:48:37.945Z,27.48
2023-09-03T13:54:24.933Z,26.46
2023-09-03T14:00:13.043Z,26.95
2023-09-03T14:06:08.194Z,27.45
2023-09-03T14:11:55.577Z,27.28
2023-09-03T14:17:42.467Z,26.77
2023-09-03T14:23:31.401Z,26.63
2023-09-03T14:29:20.280Z,26.60
2023-09-03T14:35:11.838Z,26.81
2023-09-03T14:40:59.242Z,26.43
2023-09-03T14:46:46.565Z,26.98
2023-09-03T14:52:34.625Z,26.86
2023-09-03T14:58:24.734Z,26.44
2023-09-03T15:04:11.967Z,26.54
2023-09-03T15:10:07.491Z,26.74
2023-09-03T15:15:58.120Z,26.59
2023-09-03T15:21:46.436Z,26.32
2023-09-03T15:33:42.551Z,26.54
2023-09-03T15:40:09.340Z,26.95
2023-09-03T15:46:22.134Z,26.61
2023-09-03T16:00:05.763Z,26.74
2023-09-03T16:06:34.629Z,26.53
2023-09-03T16:13:45.638Z,26.85
2023-09-03T16:21:41.482Z,26.75
2023-09-03T16:27:19.235Z,26.61
2023-09-03T16:33:09.875Z,26.45
2023-09-03T16:38:59.978Z,26.23
2023-09-03T16:44:46.810Z,26.26
2023-09-03T16:50:37.141Z,26.33
2023-09-03T16:56:24.210Z,26.16
2023-09-03T17:02:13.553Z,26.25
2023-09-03T17:08:02.704Z,26.22
2023-09-03T17:13:49.717Z,26.10
2023-09-03T17:19:37.651Z,25.73
2023-09-03T17:25:35.837Z,25.20
2023-09-03T17:31:27.871Z,25.00
2023-09-03T17:37:15.083Z,24.73
2023-09-03T17:43:04.466Z,24.55
2023-09-03T17:48:52.046Z,24.32
2023-09-03T17:54:39.034Z,24.24
2023-09-03T18:00:27.458Z,24.11
2023-09-03T18:06:14.587Z,23.99
2023-09-03T18:12:03.937Z,23.87
2023-09-03T18:17:51.120Z,23.87
2023-09-03T18:23:40.640Z,23.98
2023-09-03T18:29:30.515Z,23.90
2023-09-03T18:35:18.403Z,23.74
2023-09-03T18:41:13.076Z,23.66
2023-09-03T18:47:02.647Z,23.48
2023-09-03T18:53:04.352Z,23.44
2023-09-03T18:58:51.672Z,23.36
2023-09-03T19:04:38.840Z,23.36
2023-09-03T19:10:27.069Z,23.21
2023-09-03T19:16:21.317Z,22.88
2023-09-03T19:22:10.506Z,23.01
2023-09-03T19:28:00.062Z,22.69
2023-09-03T19:33:46.797Z,22.56
2023-09-03T19:39:33.571Z,22.59
2023-09-03T19:45:22.459Z,22.43
2023-09-03T19:51:09.430Z,22.37
2023-09-03T19:56:58.833Z,22.45
2023-09-03T20:02:45.763Z,22.31
2023-09-03T20:08:32.839Z,22.35
2023-09-03T20:14:19.595Z,22.05
2023-09-03T20:20:08.061Z,22.29
2023-09-03T20:33:14.533Z,22.05
2023-09-03T20:40:18.547Z,21.68
2023-09-03T20:46:02.019Z,21.83
2023-09-03T20:52:03.753Z,21.86
2023-09-03T20:57:50.729Z,21.73
2023-09-03T21:03:40.345Z,21.74
2023-09-03T21:09:35.269Z,21.69
2023-09-03T21:15:46.303Z,21.67
2023-09-03T21:21:45.874Z,21.68
2023-09-03T21:27:49.522Z,21.39
2023-09-03T21:33:49.159Z,21.24
2023-09-03T21:39:47.573Z,21.24
2023-09-03T21:45:34.647Z,20.98
2023-09-03T21:51:21.862Z,20.91
2023-09-03T21:57:56.108Z,20.79
2023-09-03T22:03:57.430Z,20.63
2023-09-03T22:18:07.605Z,20.05
2023-09-03T22:23:57.170Z,20.32
2023-09-03T22:29:45.164Z,20.33
2023-09-03T22:35:31.929Z,20.36
2023-09-03T22:41:19.017Z,20.33
2023-09-03T22:55:04.951Z,20.34
2023-09-03T23:00:52.370Z,19.86
2023-09-03T23:06:39.181Z,19.74
2023-09-03T23:13:37.279Z,20.08
2023-09-03T23:19:24.115Z,19.62
2023-09-03T23:25:10.848Z,19.31
2023-09-03T23:30:57.715Z,19.48
2023-09-03T23:36:44.945Z,19.71
2023-09-03T23:42:31.731Z,19.48
2023-09-03T23:48:21.254Z,19.32
2023-09-03T23:54:10.855Z,19.27
2023-09-03T23:59:58.343Z,19.02
